Thorco Crystal — V2BP9 — position and weather

sailwx.info

Track history (hours):
 
Tides and Currents Weather Stations Pressure Air Temp Water Temp Dewpoint Dewpoint Depression Visibility Wind Speed Wind Dir Waves Ship Positions

Thorco Crystal

Last reported at 2017-Oct-15 23:21 UTC. Time now 2017-Oct-19 12:48 UTC.
Position S 30°21' E 030°50'.

Length 145 m; draft 6.1 m.

Type: Cargo ship. MMSI: 304736000.

Date/timePositionNaut miles runAvg speedWind from/ knotsBaromVisibWave heightAir tempDewpointWater temp
2017-Oct-15 23:21S 30°21' E 030°50'410.1
2017-Oct-15 22:57S 30°17' E 030°52'510.6
2017-Oct-15 22:30S 30°13' E 030°54'511.0
2017-Oct-15 22:00S 30°09' E 030°58'611.1
2017-Oct-15 21:30S 30°04' E 031°02'611.5
2017-Oct-15 21:00S 29°59' E 031°06'510.4
2017-Oct-15 20:30S 29°55' E 031°08'4 8.2
2017-Oct-15 20:00S 29°51' E 031°06'3 6.9
2017-Oct-15 19:30S 29°53' E 031°03'1 1.9
2017-Oct-15 18:59S 29°52' E 031°02'0 0.0
2017-Oct-15 18:29S 29°52' E 031°02'0 0.0
2017-Oct-15 17:59S 29°52' E 031°02'0 0.0
2017-Oct-15 17:28S 29°52' E 031°02'0 0.0
2017-Oct-15 16:58S 29°52' E 031°02'0 0.0
2017-Oct-15 16:28S 29°52' E 031°02'0 0.0
2017-Oct-15 15:58S 29°52' E 031°02'0 0.0
2017-Oct-15 15:28S 29°52' E 031°02'0 0.0
2017-Oct-15 14:58S 29°52' E 031°02'0 0.0
2017-Oct-15 13:58S 29°52' E 031°02'0 0.0
2017-Oct-15 13:25S 29°52' E 031°02'0 0.0
2017-Oct-15 12:58S 29°52' E 031°02'0 0.0
2017-Oct-15 12:28S 29°52' E 031°02'0 0.0
2017-Oct-15 11:57S 29°52' E 031°02'0 0.0
2017-Oct-15 08:18S 29°52' E 031°02'0 0.0
2017-Oct-15 08:00S 29°52' E 031°02'0 0.0
2017-Oct-15 07:30S 29°52' E 031°02'0 0.0
2017-Oct-15 07:00S 29°52' E 031°02'0 0.0
2017-Oct-15 06:27S 29°52' E 031°02'0 0.0
2017-Oct-15 05:51S 29°52' E 031°02'0 0.0
2017-Oct-15 05:28S 29°52' E 031°02'0 0.0
2017-Oct-15 04:55S 29°52' E 031°02'0 0.0
2017-Oct-15 04:28S 29°52' E 031°02'0 0.0
2017-Oct-15 03:58S 29°52' E 031°02'0 0.0
2017-Oct-15 03:28S 29°52' E 031°02'0 0.0
2017-Oct-15 02:58S 29°52' E 031°02'0 0.0
2017-Oct-15 02:25S 29°52' E 031°02'0 0.0
2017-Oct-15 01:58S 29°52' E 031°02'0 0.0
2017-Oct-15 01:28S 29°52' E 031°02'0 0.0
2017-Oct-15 00:58S 29°52' E 031°02'0 0.0
2017-Oct-15 00:28S 29°52' E 031°02'0 0.0
2017-Oct-14 23:58S 29°52' E 031°02'0 0.0
2017-Oct-14 23:28S 29°52' E 031°02'0 0.0
2017-Oct-14 22:58S 29°52' E 031°02'0 0.0
2017-Oct-14 22:28S 29°52' E 031°02'0 0.0
2017-Oct-14 21:58S 29°52' E 031°02'0 0.0
2017-Oct-14 21:28S 29°52' E 031°02'0 0.0
2017-Oct-14 21:00S 29°52' E 031°02'0 0.0
2017-Oct-14 20:30S 29°52' E 031°02'0 0.0
2017-Oct-14 20:00S 29°52' E 031°02'0 0.0
2017-Oct-14 19:30S 29°52' E 031°02'0 0.2
2017-Oct-14 18:59S 29°52' E 031°02'0 0.2
2017-Oct-14 18:29S 29°52' E 031°02'0 0.0
2017-Oct-14 17:59S 29°52' E 031°02'0 0.0
2017-Oct-14 17:29S 29°52' E 031°02'0 0.0
2017-Oct-14 16:59S 29°52' E 031°02'0 0.0
2017-Oct-14 16:29S 29°52' E 031°02'0 0.0
2017-Oct-14 15:59S 29°52' E 031°02'0 0.0
2017-Oct-14 15:30S 29°52' E 031°02'0 0.0
2017-Oct-14 14:59S 29°52' E 031°02'0 0.0
2017-Oct-14 14:29S 29°52' E 031°02'0 0.0
2017-Oct-14 13:59S 29°52' E 031°02'0 0.0
2017-Oct-14 13:29S 29°52' E 031°02'0 0.0
2017-Oct-14 12:59S 29°52' E 031°02'0 0.0
2017-Oct-14 12:29S 29°52' E 031°02'0 0.0
2017-Oct-14 11:59S 29°52' E 031°02'0 0.0
2017-Oct-14 11:29S 29°52' E 031°02'0 0.0
2017-Oct-14 10:58S 29°52' E 031°02'0 0.0
2017-Oct-14 10:28S 29°52' E 031°02'0 0.0
2017-Oct-14 09:58S 29°52' E 031°02'0 0.0
2017-Oct-14 09:28S 29°52' E 031°02'0 0.0
2017-Oct-14 08:17S 29°52' E 031°02'0 0.0
2017-Oct-14 07:59S 29°52' E 031°02'0 0.0
2017-Oct-14 07:29S 29°52' E 031°02'0 0.0
2017-Oct-14 06:59S 29°52' E 031°02'0 0.0
2017-Oct-14 06:31S 29°52' E 031°02'2 2.2
2017-Oct-14 05:48S 29°52' E 031°04'2 8.3
2017-Oct-14 05:31S 29°50' E 031°05'1 1.3
2017-Oct-14 05:01S 29°49' E 031°06'3 5.9
2017-Oct-14 04:31S 29°47' E 031°07'2 2.9
2017-Oct-14 03:59S 29°45' E 031°08'0 0.1
2017-Oct-14 03:29S 29°45' E 031°08'0 0.1
2017-Oct-14 02:59S 29°45' E 031°08'0 0.0
2017-Oct-14 02:29S 29°45' E 031°08'0 0.1
2017-Oct-14 01:59S 29°45' E 031°08'0 0.1
2017-Oct-14 01:29S 29°45' E 031°08'0 0.1
2017-Oct-14 01:00S 29°45' E 031°08'0 0.2
2017-Oct-14 00:29S 29°45' E 031°08'0 0.2
2017-Oct-13 23:59S 29°45' E 031°09'0 0.2
2017-Oct-13 23:30S 29°45' E 031°08'4 7.5
2017-Oct-13 23:00S 29°44' E 031°12'611.4
2017-Oct-13 22:30S 29°42' E 031°18'611.9
2017-Oct-13 22:00S 29°38' E 031°24'611.8
2017-Oct-13 21:30S 29°34' E 031°29'611.9
2017-Oct-13 21:00S 29°30' E 031°34'611.9
2017-Oct-13 20:31S 29°26' E 031°39'611.9
2017-Oct-13 20:00S 29°23' E 031°45'  
Track history (hours):
 
Tides and Currents Weather Stations Pressure Air Temp Water Temp Dewpoint Dewpoint Depression Visibility Wind Speed Wind Dir Waves Ship Positions

Thorco Crystal

Last reported at 2017-Oct-15 23:21 UTC. Time now 2017-Oct-19 12:48 UTC.
Position S 30°21' E 030°50'.

Length 145 m; draft 6.1 m.

Type: Cargo ship. MMSI: 304736000.

Date/timePositionNaut miles runAvg speedWind from/ knotsBaromVisibWave heightAir tempDewpointWater temp
2017-Oct-15 23:21S 30°21' E 030°50'410.1
2017-Oct-15 22:57S 30°17' E 030°52'510.6
2017-Oct-15 22:30S 30°13' E 030°54'511.0
2017-Oct-15 22:00S 30°09' E 030°58'611.1
2017-Oct-15 21:30S 30°04' E 031°02'611.5
2017-Oct-15 21:00S 29°59' E 031°06'510.4
2017-Oct-15 20:30S 29°55' E 031°08'4 8.2
2017-Oct-15 20:00S 29°51' E 031°06'3 6.9
2017-Oct-15 19:30S 29°53' E 031°03'1 1.9
2017-Oct-15 18:59S 29°52' E 031°02'0 0.0
2017-Oct-15 18:29S 29°52' E 031°02'0 0.0
2017-Oct-15 17:59S 29°52' E 031°02'0 0.0
2017-Oct-15 17:28S 29°52' E 031°02'0 0.0
2017-Oct-15 16:58S 29°52' E 031°02'0 0.0
2017-Oct-15 16:28S 29°52' E 031°02'0 0.0
2017-Oct-15 15:58S 29°52' E 031°02'0 0.0
2017-Oct-15 15:28S 29°52' E 031°02'0 0.0
2017-Oct-15 14:58S 29°52' E 031°02'0 0.0
2017-Oct-15 13:58S 29°52' E 031°02'0 0.0
2017-Oct-15 13:25S 29°52' E 031°02'0 0.0
2017-Oct-15 12:58S 29°52' E 031°02'0 0.0
2017-Oct-15 12:28S 29°52' E 031°02'0 0.0
2017-Oct-15 11:57S 29°52' E 031°02'0 0.0
2017-Oct-15 08:18S 29°52' E 031°02'0 0.0
2017-Oct-15 08:00S 29°52' E 031°02'0 0.0
2017-Oct-15 07:30S 29°52' E 031°02'0 0.0
2017-Oct-15 07:00S 29°52' E 031°02'0 0.0
2017-Oct-15 06:27S 29°52' E 031°02'0 0.0
2017-Oct-15 05:51S 29°52' E 031°02'0 0.0
2017-Oct-15 05:28S 29°52' E 031°02'0 0.0
2017-Oct-15 04:55S 29°52' E 031°02'0 0.0
2017-Oct-15 04:28S 29°52' E 031°02'0 0.0
2017-Oct-15 03:58S 29°52' E 031°02'0 0.0
2017-Oct-15 03:28S 29°52' E 031°02'0 0.0
2017-Oct-15 02:58S 29°52' E 031°02'0 0.0
2017-Oct-15 02:25S 29°52' E 031°02'0 0.0
2017-Oct-15 01:58S 29°52' E 031°02'0 0.0
2017-Oct-15 01:28S 29°52' E 031°02'0 0.0
2017-Oct-15 00:58S 29°52' E 031°02'0 0.0
2017-Oct-15 00:28S 29°52' E 031°02'0 0.0
2017-Oct-14 23:58S 29°52' E 031°02'0 0.0
2017-Oct-14 23:28S 29°52' E 031°02'0 0.0
2017-Oct-14 22:58S 29°52' E 031°02'0 0.0
2017-Oct-14 22:28S 29°52' E 031°02'0 0.0
2017-Oct-14 21:58S 29°52' E 031°02'0 0.0
2017-Oct-14 21:28S 29°52' E 031°02'0 0.0
2017-Oct-14 21:00S 29°52' E 031°02'0 0.0
2017-Oct-14 20:30S 29°52' E 031°02'0 0.0
2017-Oct-14 20:00S 29°52' E 031°02'0 0.0
2017-Oct-14 19:30S 29°52' E 031°02'0 0.2
2017-Oct-14 18:59S 29°52' E 031°02'0 0.2
2017-Oct-14 18:29S 29°52' E 031°02'0 0.0
2017-Oct-14 17:59S 29°52' E 031°02'0 0.0
2017-Oct-14 17:29S 29°52' E 031°02'0 0.0
2017-Oct-14 16:59S 29°52' E 031°02'0 0.0
2017-Oct-14 16:29S 29°52' E 031°02'0 0.0
2017-Oct-14 15:59S 29°52' E 031°02'0 0.0
2017-Oct-14 15:30S 29°52' E 031°02'0 0.0
2017-Oct-14 14:59S 29°52' E 031°02'0 0.0
2017-Oct-14 14:29S 29°52' E 031°02'0 0.0
2017-Oct-14 13:59S 29°52' E 031°02'0 0.0
2017-Oct-14 13:29S 29°52' E 031°02'0 0.0
2017-Oct-14 12:59S 29°52' E 031°02'0 0.0
2017-Oct-14 12:29S 29°52' E 031°02'0 0.0
2017-Oct-14 11:59S 29°52' E 031°02'0 0.0
2017-Oct-14 11:29S 29°52' E 031°02'0 0.0
2017-Oct-14 10:58S 29°52' E 031°02'0 0.0
2017-Oct-14 10:28S 29°52' E 031°02'0 0.0
2017-Oct-14 09:58S 29°52' E 031°02'0 0.0
2017-Oct-14 09:28S 29°52' E 031°02'0 0.0
2017-Oct-14 08:17S 29°52' E 031°02'0 0.0
2017-Oct-14 07:59S 29°52' E 031°02'0 0.0
2017-Oct-14 07:29S 29°52' E 031°02'0 0.0
2017-Oct-14 06:59S 29°52' E 031°02'0 0.0
2017-Oct-14 06:31S 29°52' E 031°02'2 2.2
2017-Oct-14 05:48S 29°52' E 031°04'2 8.3
2017-Oct-14 05:31S 29°50' E 031°05'1 1.3
2017-Oct-14 05:01S 29°49' E 031°06'3 5.9
2017-Oct-14 04:31S 29°47' E 031°07'2 2.9
2017-Oct-14 03:59S 29°45' E 031°08'0 0.1
2017-Oct-14 03:29S 29°45' E 031°08'0 0.1
2017-Oct-14 02:59S 29°45' E 031°08'0 0.0
2017-Oct-14 02:29S 29°45' E 031°08'0 0.1
2017-Oct-14 01:59S 29°45' E 031°08'0 0.1
2017-Oct-14 01:29S 29°45' E 031°08'0 0.1
2017-Oct-14 01:00S 29°45' E 031°08'0 0.2
2017-Oct-14 00:29S 29°45' E 031°08'0 0.2
2017-Oct-13 23:59S 29°45' E 031°09'0 0.2
2017-Oct-13 23:30S 29°45' E 031°08'4 7.5
2017-Oct-13 23:00S 29°44' E 031°12'611.4
2017-Oct-13 22:30S 29°42' E 031°18'611.9
2017-Oct-13 22:00S 29°38' E 031°24'611.8
2017-Oct-13 21:30S 29°34' E 031°29'611.9
2017-Oct-13 21:00S 29°30' E 031°34'611.9
2017-Oct-13 20:31S 29°26' E 031°39'611.9
2017-Oct-13 20:00S 29°23' E 031°45'  

Dump ship's entire track history